ロングイェールビーン の空港の天気 - METARとTAF

スヴァールバル空港 ( ENSB / LYR ) - スヴァールバル諸島・ヤンマイエン島 ロングイェールビーン
飛行場実況気象(Metar)
観測時間07/29 04:20 CEST (07/29 02:20 UTC)
風向・風速西南西 4m/s
視程10km以上
天気現象
全天を覆う雲 雲底高度 270m
気温6℃
湿度93%
気圧1012hPa
METARENSB 290220Z 25007KT 9999 OVC009 06/05 Q1012 RMK WIND 1400FT VRB02KT
過去の天気等 Google飛行場航空写真 Wunderground天気予報

過去48時間のMETAR

飛行場予報(TAF)
発表時間: -
29日5時 CEST ~ 29日8時 CEST に徐々に
風向・風速南東 5m/s
29日8時 CEST ~ 29日11時 CEST に徐々に
少しの雲 雲底高度 370m
全天の8割程度の雲 雲底高度 910m
29日13時 CEST ~ 29日15時 CEST に徐々に
風向・風速北東 5m/s
29日20時 CEST ~ 30日2時 CEST に一時的に
全天の8割程度の雲 雲底高度 430m
TAF AMD ENSB 2902/2924 26008KT 9999 BKN009
BECMG 2903/2906 13010KT
BECMG 2906/2909 FEW012 BKN030
BECMG 2911/2913 04010KT
TEMPO 2918/2924 BKN014